KARG

Walnut Ridge Regional Airport

Walnut Ridge, Arkansas, USA
METAR KARG 191456Z AUTO 21012KT 10SM CLR M01/M06 A3024 RMK AO2 SLP245 T10111061 55000 FZRANO
Observed Flight Rules
Jan-19 @ 14:56 UTC (36 minutes ago) Visual Flight Rules
Wind Visibility Clouds
210° at 12 knots 10 miles
  • Clear skies
Temperatures Readings
Current -1°C / 30°F
Dewpoint -6°C / 21°F
Humidity 69%
Altimeter 30.24" Hg
Pressure 1024.5 hPa
Elevation 83
METAR KARG 191456Z AUTO 21012KT 10SM CLR M01/M06 A3024 RMK AO2 SLP245 T10111061 55000 FZRANO
Observed Flight Rules
Jan-19 @ 14:56 UTC
(36 minutes ago)
VFR
Wind Visibility
210° at 12 knots 10 miles
Clouds
  • Clear skies
Temperature Dewpoint
-1°C / 30°F -6°C / 21°F
Humidity Altimeter Pressure
69% 30.24" Hg 1024.5 hPa